createdAt,value
2018-07-20T00:00:46.331Z,69.40
2018-07-20T00:03:14.475Z,69.60
2018-07-20T00:05:43.277Z,69.80
2018-07-20T00:08:11.431Z,70.30
2018-07-20T00:10:39.653Z,70.60
2018-07-20T00:13:07.775Z,70.70
2018-07-20T00:15:36.010Z,71.00
2018-07-20T00:18:04.240Z,71.70
2018-07-20T00:20:32.524Z,72.00
2018-07-20T00:23:02.803Z,72.50
2018-07-20T00:25:32.611Z,73.00
2018-07-20T00:28:01.138Z,73.30
2018-07-20T00:30:29.348Z,73.70
2018-07-20T00:32:57.820Z,74.00
2018-07-20T00:35:26.069Z,74.30
2018-07-20T00:37:55.673Z,74.60
2018-07-20T00:40:23.875Z,75.00
2018-07-20T00:42:52.064Z,75.40
2018-07-20T00:45:20.237Z,75.80
2018-07-20T00:47:48.597Z,76.20
2018-07-20T00:50:17.158Z,76.40
2018-07-20T00:52:45.308Z,76.70
2018-07-20T00:55:13.457Z,77.10
2018-07-20T00:57:41.689Z,77.40
2018-07-20T01:00:09.958Z,77.70
2018-07-20T01:02:38.320Z,78.10
2018-07-20T01:05:06.870Z,78.50
2018-07-20T01:07:36.262Z,78.80
2018-07-20T01:10:04.550Z,79.20
2018-07-20T01:12:32.874Z,79.80
2018-07-20T01:15:01.038Z,80.00
2018-07-20T01:17:29.275Z,80.20
2018-07-20T01:19:58.044Z,80.40
2018-07-20T01:22:26.189Z,80.60
2018-07-20T01:24:54.461Z,80.80
2018-07-20T01:27:22.640Z,81.00
2018-07-20T01:29:50.913Z,81.20
2018-07-20T01:32:20.300Z,81.40
2018-07-20T01:34:48.405Z,81.80
2018-07-20T01:37:16.655Z,81.90
2018-07-20T01:39:46.444Z,82.20
2018-07-20T01:42:14.610Z,82.60
2018-07-20T01:44:42.769Z,83.00
2018-07-20T01:47:11.197Z,83.10
2018-07-20T01:49:40.002Z,83.60
2018-07-20T01:52:09.268Z,83.70
2018-07-20T01:54:37.486Z,84.20
2018-07-20T01:57:05.942Z,84.50
2018-07-20T01:59:34.152Z,84.70
2018-07-20T02:02:02.312Z,85.00
2018-07-20T02:04:30.526Z,85.60
2018-07-20T02:06:58.720Z,86.00
2018-07-20T02:09:28.814Z,86.50
2018-07-20T02:11:57.730Z,86.60
2018-07-20T02:14:28.086Z,86.90
2018-07-20T02:16:56.526Z,87.10
2018-07-20T02:19:25.487Z,87.50
2018-07-20T02:21:54.522Z,87.40
2018-07-20T02:24:23.044Z,87.80
2018-07-20T02:26:51.520Z,87.90
2018-07-20T02:29:20.964Z,88.00
2018-07-20T02:31:49.146Z,88.40
2018-07-20T02:34:18.136Z,88.70
2018-07-20T02:36:46.680Z,89.10
2018-07-20T02:39:14.884Z,89.50
2018-07-20T02:41:43.052Z,89.60
2018-07-20T02:44:12.425Z,89.90
2018-07-20T02:46:40.700Z,90.00
2018-07-20T02:49:09.313Z,90.30
2018-07-20T02:51:37.487Z,90.50
2018-07-20T02:54:05.696Z,90.60
2018-07-20T02:56:33.914Z,90.70
2018-07-20T02:59:02.158Z,90.70
2018-07-20T03:01:30.419Z,90.70
2018-07-20T03:03:58.586Z,90.90
2018-07-20T03:06:27.048Z,90.90
2018-07-20T03:08:55.283Z,91.00
2018-07-20T03:11:23.499Z,91.20
2018-07-20T03:13:51.817Z,91.30
2018-07-20T03:16:20.127Z,91.30
2018-07-20T03:18:48.272Z,91.30
2018-07-20T03:21:16.599Z,91.20
2018-07-20T03:23:44.771Z,91.10
2018-07-20T03:26:13.114Z,91.00
2018-07-20T03:28:41.287Z,90.90
2018-07-20T03:31:09.659Z,90.90
2018-07-20T03:33:37.823Z,90.90
2018-07-20T03:36:06.204Z,90.90
2018-07-20T03:38:34.421Z,90.90
2018-07-20T03:41:02.577Z,90.90
2018-07-20T03:43:30.779Z,90.90
2018-07-20T03:45:59.143Z,90.90
2018-07-20T03:48:27.410Z,90.70
2018-07-20T03:50:55.553Z,90.70
2018-07-20T03:53:23.799Z,90.80
2018-07-20T03:55:52.033Z,91.00
2018-07-20T03:58:20.338Z,90.70
2018-07-20T04:00:48.703Z,90.60
2018-07-20T04:03:16.905Z,90.60
2018-07-20T04:05:45.182Z,90.70
2018-07-20T04:08:13.387Z,90.80
2018-07-20T04:10:41.619Z,90.80
2018-07-20T04:13:09.807Z,90.80
2018-07-20T04:15:37.971Z,90.80
2018-07-20T04:18:06.333Z,91.00
2018-07-20T04:20:34.483Z,91.10
2018-07-20T04:23:02.625Z,91.40
2018-07-20T04:25:30.917Z,91.10
2018-07-20T04:27:59.183Z,91.20
2018-07-20T04:30:27.394Z,90.90
2018-07-20T04:32:55.571Z,90.70
2018-07-20T04:35:23.863Z,90.60
2018-07-20T04:37:52.159Z,90.50
2018-07-20T04:40:20.307Z,90.50
2018-07-20T04:42:48.569Z,90.30
2018-07-20T04:45:16.780Z,90.30
2018-07-20T04:47:46.153Z,90.30
2018-07-20T04:50:14.424Z,90.00
2018-07-20T04:52:42.745Z,89.70
2018-07-20T04:55:10.951Z,89.90
2018-07-20T04:57:39.101Z,89.40
2018-07-20T05:00:07.289Z,88.60
2018-07-20T05:02:35.454Z,86.00
2018-07-20T05:05:03.928Z,83.90
2018-07-20T05:07:32.435Z,78.70
2018-07-20T05:10:01.410Z,74.80
2018-07-20T05:12:32.547Z,70.00
2018-07-20T05:15:01.000Z,68.40
2018-07-20T05:17:29.431Z,65.70
2018-07-20T05:19:57.700Z,62.90
2018-07-20T05:22:27.417Z,59.70
2018-07-20T05:24:55.831Z,59.00
2018-07-20T05:27:24.162Z,57.20
2018-07-20T05:29:52.493Z,56.90
2018-07-20T05:32:20.735Z,55.50
2018-07-20T05:34:48.938Z,54.20
2018-07-20T05:37:17.076Z,54.20
2018-07-20T05:39:45.182Z,52.10
2018-07-20T05:42:13.372Z,52.60
2018-07-20T05:44:41.684Z,51.70
2018-07-20T05:47:10.668Z,50.40
2018-07-20T05:49:38.903Z,50.40
2018-07-20T05:52:07.077Z,49.70
2018-07-20T05:54:35.252Z,48.80
2018-07-20T05:57:05.408Z,48.00
2018-07-20T05:59:33.714Z,47.30
2018-07-20T06:02:01.886Z,47.80
2018-07-20T06:04:30.676Z,48.80
2018-07-20T06:07:00.313Z,49.20
2018-07-20T06:09:28.414Z,49.70
2018-07-20T06:11:56.567Z,49.70
2018-07-20T06:14:24.744Z,49.00
2018-07-20T06:16:52.926Z,48.50
2018-07-20T06:19:21.130Z,48.30
2018-07-20T06:21:50.438Z,47.80
2018-07-20T06:24:18.559Z,47.30
2018-07-20T06:26:46.839Z,47.40
2018-07-20T06:29:15.966Z,47.30
2018-07-20T06:31:44.143Z,46.80
2018-07-20T06:39:10.182Z,45.50
2018-07-20T06:41:38.358Z,45.60
2018-07-20T06:44:06.472Z,45.70
2018-07-20T06:46:35.084Z,46.00
2018-07-20T06:49:03.270Z,46.20
2018-07-20T06:51:31.519Z,45.80
2018-07-20T06:53:59.708Z,45.30
2018-07-20T06:58:56.922Z,45.50
2018-07-20T07:03:53.426Z,45.40
2018-07-20T07:08:50.074Z,46.20
2018-07-20T07:11:18.178Z,46.80
2018-07-20T07:13:46.398Z,46.70
2018-07-20T07:16:14.687Z,46.90
2018-07-20T07:18:42.896Z,46.70
2018-07-20T07:21:11.537Z,47.00
2018-07-20T07:23:40.226Z,46.60
2018-07-20T07:26:08.353Z,46.40
2018-07-20T07:28:37.242Z,45.80
2018-07-20T07:31:05.407Z,45.20
2018-07-20T07:33:33.622Z,45.00
2018-07-20T07:36:02.270Z,45.50
2018-07-20T07:38:31.618Z,44.80
2018-07-20T07:41:01.117Z,45.10
2018-07-20T07:43:29.209Z,45.40
2018-07-20T07:45:57.320Z,45.40
2018-07-20T07:48:25.452Z,44.80
2018-07-20T07:53:21.539Z,44.10
2018-07-20T07:55:49.633Z,44.20
2018-07-20T07:58:17.777Z,43.20
2018-07-20T08:00:45.942Z,43.40
2018-07-20T08:03:14.274Z,44.50
2018-07-20T08:05:42.497Z,44.70
2018-07-20T08:10:38.993Z,45.30
2018-07-20T08:13:07.389Z,44.80
2018-07-20T08:15:35.519Z,44.90
2018-07-20T08:20:31.987Z,45.30
2018-07-20T08:23:00.531Z,45.30
2018-07-20T08:25:28.811Z,45.20
2018-07-20T08:27:56.957Z,44.80
2018-07-20T08:30:26.681Z,45.10
2018-07-20T08:32:54.845Z,44.40
2018-07-20T08:35:23.023Z,44.90
2018-07-20T08:40:19.998Z,45.30
2018-07-20T08:42:48.117Z,45.30
2018-07-20T08:45:16.503Z,45.20
2018-07-20T08:47:44.648Z,45.60
2018-07-20T08:50:12.766Z,45.00
2018-07-20T08:52:41.506Z,45.10
2018-07-20T08:55:09.716Z,44.90
2018-07-20T08:57:37.954Z,42.90
2018-07-20T09:00:06.814Z,43.00
2018-07-20T09:02:35.058Z,43.10
2018-07-20T09:05:03.541Z,43.20
2018-07-20T09:07:31.653Z,42.70
2018-07-20T09:09:59.882Z,43.50
2018-07-20T09:12:28.006Z,44.50
2018-07-20T09:14:56.302Z,44.80
2018-07-20T09:19:52.942Z,45.00
2018-07-20T09:22:21.062Z,44.80
2018-07-20T09:24:49.318Z,44.70
2018-07-20T09:27:17.759Z,44.60
2018-07-20T09:29:45.898Z,44.60
2018-07-20T09:32:14.222Z,44.20
2018-07-20T09:34:42.720Z,44.60
2018-07-20T09:37:10.890Z,44.90
2018-07-20T09:39:39.196Z,45.10
2018-07-20T09:42:07.372Z,44.80
2018-07-20T09:44:35.579Z,45.00
2018-07-20T09:47:03.925Z,45.50
2018-07-20T09:49:32.243Z,45.70
2018-07-20T09:52:00.417Z,45.30
2018-07-20T09:54:28.673Z,44.70
2018-07-20T09:56:56.808Z,44.90
2018-07-20T09:59:25.010Z,44.80
2018-07-20T10:01:53.374Z,43.80
2018-07-20T10:04:23.003Z,43.50
2018-07-20T10:06:52.617Z,44.20
2018-07-20T10:09:20.769Z,43.40
2018-07-20T10:11:49.176Z,44.30
2018-07-20T10:14:18.211Z,44.10
2018-07-20T10:16:47.368Z,44.20
2018-07-20T10:19:17.359Z,43.90
2018-07-20T10:21:45.708Z,44.80
2018-07-20T10:24:14.011Z,44.50
2018-07-20T10:26:42.699Z,44.70
2018-07-20T10:29:10.915Z,44.00
2018-07-20T10:31:39.087Z,43.60
2018-07-20T10:34:07.931Z,44.30
2018-07-20T10:36:36.442Z,44.50
2018-07-20T10:39:07.364Z,43.80
2018-07-20T10:44:03.732Z,44.00
2018-07-20T10:46:31.910Z,43.80
2018-07-20T10:49:00.192Z,43.80
2018-07-20T10:51:28.391Z,43.50
2018-07-20T10:53:56.606Z,43.70
2018-07-20T10:56:24.870Z,43.40
2018-07-20T10:58:53.643Z,44.20
2018-07-20T11:01:21.961Z,43.60
2018-07-20T11:03:50.179Z,43.70
2018-07-20T11:06:18.368Z,43.90
2018-07-20T11:08:46.576Z,43.20
2018-07-20T11:11:14.755Z,42.50
2018-07-20T11:13:43.380Z,42.90
2018-07-20T11:16:11.616Z,43.10
2018-07-20T11:18:39.758Z,42.10
2018-07-20T11:21:07.896Z,41.40
2018-07-20T11:23:36.033Z,42.00
2018-07-20T11:26:04.197Z,42.20
2018-07-20T11:28:32.322Z,42.00
2018-07-20T11:31:00.683Z,42.00
2018-07-20T11:33:28.874Z,41.30
2018-07-20T11:35:57.145Z,41.90
2018-07-20T11:38:25.362Z,41.00
2018-07-20T11:40:53.600Z,40.50
2018-07-20T11:43:21.813Z,41.00
2018-07-20T11:45:50.005Z,40.00
2018-07-20T11:48:18.149Z,40.10
2018-07-20T11:50:46.449Z,40.30
2018-07-20T11:53:14.605Z,40.40
2018-07-20T11:55:42.980Z,40.10
2018-07-20T11:58:11.120Z,39.90
2018-07-20T12:00:39.345Z,40.50
2018-07-20T12:03:08.206Z,40.50
2018-07-20T12:05:36.483Z,40.90
2018-07-20T12:08:04.737Z,39.80
2018-07-20T12:10:33.089Z,39.90
2018-07-20T12:13:01.215Z,39.60
2018-07-20T12:15:29.443Z,40.10
2018-07-20T12:17:57.973Z,40.00
2018-07-20T12:20:26.101Z,40.30
2018-07-20T12:22:54.191Z,39.80
2018-07-20T12:25:22.361Z,39.20
2018-07-20T12:27:50.597Z,38.20
2018-07-20T12:30:18.929Z,38.80
2018-07-20T12:32:47.541Z,39.00
2018-07-20T12:35:15.741Z,39.70
2018-07-20T12:37:43.949Z,39.70
2018-07-20T12:40:12.147Z,38.80
2018-07-20T12:42:40.330Z,38.50
2018-07-20T12:45:09.250Z,38.30
2018-07-20T12:47:37.533Z,37.50
2018-07-20T12:50:05.933Z,36.80
2018-07-20T12:52:34.074Z,37.30
2018-07-20T12:55:02.418Z,36.20
2018-07-20T13:02:27.398Z,36.70
2018-07-20T13:04:55.576Z,37.00
2018-07-20T13:07:31.408Z,37.30
2018-07-20T13:09:59.800Z,37.50
2018-07-20T13:12:28.618Z,36.20
2018-07-20T13:14:56.787Z,36.10
2018-07-20T13:17:24.962Z,35.50
2018-07-20T13:22:23.439Z,35.90
2018-07-20T13:24:52.300Z,36.00
2018-07-20T13:27:21.158Z,36.20
2018-07-20T13:29:49.290Z,37.10
2018-07-20T13:32:17.567Z,36.40
2018-07-20T13:34:45.878Z,36.80
2018-07-20T13:37:14.061Z,36.80
2018-07-20T13:39:42.272Z,37.00
2018-07-20T13:42:10.428Z,36.80
2018-07-20T13:44:38.562Z,36.60
2018-07-20T13:47:06.863Z,36.90
2018-07-20T13:49:35.044Z,37.80
2018-07-20T13:54:31.512Z,37.00
2018-07-20T13:56:59.757Z,36.60
2018-07-20T13:59:27.914Z,36.70
2018-07-20T14:01:56.092Z,37.00
2018-07-20T14:04:24.238Z,36.70
2018-07-20T14:06:52.818Z,36.70
2018-07-20T14:09:21.030Z,36.70
2018-07-20T14:11:49.228Z,37.00
2018-07-20T14:14:17.329Z,37.00
2018-07-20T14:19:13.615Z,37.80
2018-07-20T14:21:41.746Z,38.40
2018-07-20T14:24:09.960Z,38.40
2018-07-20T14:26:38.137Z,38.40
2018-07-20T14:29:06.280Z,38.60
2018-07-20T14:31:34.650Z,38.30
2018-07-20T14:34:02.743Z,37.80
2018-07-20T14:36:30.907Z,37.90
2018-07-20T14:39:01.395Z,37.80
2018-07-20T14:41:30.641Z,38.40
2018-07-20T14:43:58.811Z,38.00
2018-07-20T14:46:26.983Z,38.40
2018-07-20T14:48:56.533Z,38.10
2018-07-20T14:51:28.089Z,38.40
2018-07-20T14:53:58.684Z,38.70
2018-07-20T14:56:27.241Z,38.30
2018-07-20T14:58:55.522Z,38.60
2018-07-20T15:01:25.590Z,38.40
2018-07-20T15:03:54.767Z,38.70
2018-07-20T15:06:22.936Z,38.50
2018-07-20T15:08:51.769Z,38.30
2018-07-20T15:11:20.739Z,37.80
2018-07-20T15:13:49.201Z,38.20
2018-07-20T15:16:17.509Z,36.40
2018-07-20T15:18:45.914Z,36.50
2018-07-20T15:21:14.027Z,36.90
2018-07-20T15:23:42.462Z,37.00
2018-07-20T15:26:11.013Z,37.60
2018-07-20T15:28:39.302Z,38.00
2018-07-20T15:31:07.445Z,38.90
2018-07-20T15:33:35.587Z,38.10
2018-07-20T15:36:05.378Z,38.30
2018-07-20T15:38:33.659Z,37.90
2018-07-20T15:41:01.787Z,38.20
2018-07-20T15:43:30.251Z,38.40
2018-07-20T15:46:05.966Z,37.60
2018-07-20T15:48:27.112Z,38.40
2018-07-20T15:50:55.795Z,38.40
2018-07-20T15:53:40.414Z,38.40
2018-07-20T15:55:54.292Z,38.80
2018-07-20T15:58:23.261Z,38.70
2018-07-20T16:00:52.291Z,38.50
2018-07-20T16:03:20.967Z,38.70
2018-07-20T16:05:49.681Z,39.10
2018-07-20T16:08:18.277Z,39.00
2018-07-20T16:10:47.559Z,39.20
2018-07-20T16:13:16.249Z,39.00
2018-07-20T16:15:44.855Z,39.10
2018-07-20T16:18:13.523Z,38.90
2018-07-20T16:20:41.733Z,39.00
2018-07-20T16:23:09.833Z,39.20
2018-07-20T16:25:38.073Z,39.50
2018-07-20T16:28:06.435Z,40.20
2018-07-20T16:30:35.544Z,39.50
2018-07-20T16:33:04.214Z,39.80
2018-07-20T16:35:32.886Z,39.70
2018-07-20T16:38:01.296Z,39.30
2018-07-20T16:40:29.745Z,38.30
2018-07-20T16:45:26.232Z,38.80
2018-07-20T16:47:58.392Z,38.60
2018-07-20T16:50:26.920Z,38.70
2018-07-20T16:52:55.296Z,39.10
2018-07-20T16:55:24.390Z,39.30
2018-07-20T16:57:52.544Z,39.60
2018-07-20T17:00:20.662Z,39.50
2018-07-20T17:02:48.784Z,39.80
2018-07-20T17:05:16.945Z,39.80
2018-07-20T17:07:45.121Z,39.90
2018-07-20T17:10:13.331Z,39.60
2018-07-20T17:15:09.713Z,39.90
2018-07-20T17:17:38.116Z,39.70
2018-07-20T17:20:06.752Z,40.00
2018-07-20T17:25:02.893Z,40.10
2018-07-20T17:27:31.063Z,40.10
2018-07-20T17:29:59.201Z,40.40
2018-07-20T17:32:27.373Z,40.30
2018-07-20T17:34:55.631Z,40.40
2018-07-20T17:37:23.822Z,40.60
2018-07-20T17:39:52.081Z,40.80
2018-07-20T17:42:20.280Z,40.90
2018-07-20T17:44:48.457Z,40.80
2018-07-20T17:47:16.735Z,41.10
2018-07-20T17:49:46.173Z,40.90
2018-07-20T17:52:14.443Z,40.70
2018-07-20T17:54:42.687Z,40.90
2018-07-20T17:57:10.972Z,41.10
2018-07-20T18:02:08.060Z,41.30
2018-07-20T18:04:36.583Z,41.40
2018-07-20T18:07:04.866Z,41.40
2018-07-20T18:09:33.039Z,41.60
2018-07-20T18:12:01.278Z,41.80
2018-07-20T18:14:30.467Z,42.10
2018-07-20T18:19:26.567Z,42.10
2018-07-20T18:21:54.725Z,42.10
2018-07-20T18:24:22.921Z,42.40
2018-07-20T18:26:51.088Z,42.60
2018-07-20T18:29:19.399Z,42.80
2018-07-20T18:31:47.631Z,43.10
2018-07-20T18:34:15.829Z,42.40
2018-07-20T18:36:44.035Z,42.10
2018-07-20T18:39:13.029Z,41.90
2018-07-20T18:41:41.696Z,41.70
2018-07-20T18:44:10.281Z,41.70
2018-07-20T18:46:39.805Z,41.80
2018-07-20T18:49:08.065Z,41.90
2018-07-20T18:51:36.293Z,42.00
2018-07-20T18:54:04.529Z,42.60
2018-07-20T18:56:32.683Z,42.00
2018-07-20T18:59:00.821Z,42.00
2018-07-20T19:01:30.113Z,42.20
2018-07-20T19:03:58.353Z,42.20
2018-07-20T19:06:26.589Z,42.40
2018-07-20T19:08:54.839Z,42.50
2018-07-20T19:11:23.013Z,42.10
2018-07-20T19:13:51.304Z,42.40
2018-07-20T19:16:19.503Z,42.50
2018-07-20T19:18:48.456Z,42.30
2018-07-20T19:21:16.696Z,42.50
2018-07-20T19:23:45.071Z,42.50
2018-07-20T19:26:13.811Z,42.80
2018-07-20T19:28:41.969Z,42.90
2018-07-20T19:31:10.145Z,43.20
2018-07-20T19:33:38.417Z,43.10
2018-07-20T19:38:34.597Z,43.30
2018-07-20T19:41:02.836Z,43.30
2018-07-20T19:43:30.997Z,43.20
2018-07-20T19:45:59.116Z,43.30
2018-07-20T19:48:27.338Z,43.10
2018-07-20T19:50:55.513Z,42.90
2018-07-20T19:53:23.755Z,43.50
2018-07-20T19:55:52.169Z,43.20
2018-07-20T19:58:20.405Z,43.40
2018-07-20T20:03:16.488Z,43.50
2018-07-20T20:05:44.641Z,44.20
2018-07-20T20:08:12.907Z,43.80
2018-07-20T20:13:09.141Z,43.90
2018-07-20T20:15:37.352Z,44.10
2018-07-20T20:18:05.841Z,44.20
2018-07-20T20:20:34.228Z,44.30
2018-07-20T20:23:02.391Z,44.60
2018-07-20T20:25:30.568Z,44.30
2018-07-20T20:27:58.795Z,44.40
2018-07-20T20:30:27.154Z,44.30
2018-07-20T20:32:55.425Z,44.30
2018-07-20T20:35:23.588Z,44.30
2018-07-20T20:37:51.878Z,44.40
2018-07-20T20:40:20.085Z,45.20
2018-07-20T20:42:48.430Z,44.80
2018-07-20T20:45:16.598Z,44.50
2018-07-20T20:47:44.672Z,44.70
2018-07-20T20:50:12.895Z,44.80
2018-07-20T20:52:41.148Z,44.70
2018-07-20T20:55:09.302Z,44.80
2018-07-20T20:57:37.667Z,44.90
2018-07-20T21:00:06.514Z,45.10
2018-07-20T21:02:34.736Z,44.90
2018-07-20T21:05:02.903Z,44.80
2018-07-20T21:07:31.134Z,45.00
2018-07-20T21:09:59.373Z,45.00
2018-07-20T21:12:27.620Z,45.00
2018-07-20T21:14:55.734Z,45.30
2018-07-20T21:17:23.890Z,45.30
2018-07-20T21:19:52.141Z,45.30
2018-07-20T21:22:20.263Z,45.30
2018-07-20T21:24:48.424Z,45.50
2018-07-20T21:27:16.571Z,45.80
2018-07-20T21:29:44.732Z,46.10
2018-07-20T21:32:12.842Z,46.00
2018-07-20T21:34:41.090Z,46.10
2018-07-20T21:37:09.306Z,46.60
2018-07-20T21:39:37.459Z,46.50
2018-07-20T21:42:05.636Z,46.60
2018-07-20T21:44:34.137Z,46.40
2018-07-20T21:47:02.495Z,46.30
2018-07-20T21:49:30.668Z,46.10
2018-07-20T21:51:59.178Z,46.00
2018-07-20T21:54:27.450Z,46.40
2018-07-20T21:56:55.717Z,46.50
2018-07-20T21:59:23.916Z,46.20
2018-07-20T22:01:52.229Z,46.40
2018-07-20T22:04:20.396Z,46.70
2018-07-20T22:06:48.651Z,46.70
2018-07-20T22:11:54.847Z,46.60
2018-07-20T22:14:23.069Z,46.70
2018-07-20T22:16:51.529Z,46.70
2018-07-20T22:19:20.081Z,46.70
2018-07-20T22:21:48.228Z,46.90
2018-07-20T22:24:16.541Z,47.20
2018-07-20T22:26:44.885Z,47.40
2018-07-20T22:29:13.274Z,47.60
2018-07-20T22:31:41.401Z,47.70
2018-07-20T22:36:37.491Z,47.90
2018-07-20T22:39:08.695Z,48.00
2018-07-20T22:41:37.665Z,48.10
2018-07-20T22:46:34.302Z,48.80
2018-07-20T22:51:30.505Z,49.10
2018-07-20T22:53:58.721Z,49.60
2018-07-20T22:56:26.893Z,49.40
2018-07-20T22:58:55.027Z,49.60
2018-07-20T23:01:23.205Z,50.30
2018-07-20T23:06:19.353Z,50.70
2018-07-20T23:08:47.487Z,51.40
2018-07-20T23:11:15.605Z,51.30
2018-07-20T23:13:43.930Z,51.50
2018-07-20T23:16:12.061Z,51.90
2018-07-20T23:18:41.603Z,52.40
2018-07-20T23:21:09.791Z,52.50
2018-07-20T23:23:38.039Z,52.90
2018-07-20T23:26:06.333Z,53.20
2018-07-20T23:31:02.617Z,54.40
2018-07-20T23:33:30.849Z,54.80
2018-07-20T23:35:58.981Z,55.10
2018-07-20T23:38:27.151Z,55.60
2018-07-20T23:40:55.331Z,55.90
2018-07-20T23:43:23.489Z,56.20
2018-07-20T23:45:52.453Z,56.60
2018-07-20T23:48:20.575Z,56.60
2018-07-20T23:50:48.735Z,56.80
2018-07-20T23:53:17.088Z,56.90
2018-07-20T23:55:46.205Z,57.10
2018-07-20T23:58:14.443Z,57.20
